Date,TemperatureHighF,TemperatureAvgF,TemperatureLowF,DewpointHighF,DewpointAvgF,DewpointLowF,HumidityHigh,HumidityAvg,HumidityLow,PressureMaxIn,PressureMinIn,WindSpeedMaxMPH,WindSpeedAvgMPH,GustSpeedMaxMPH,PrecipitationSumIn
2012-1-1,54.0,46.3,30.0,49.0,30.8,6.0,94,60,16,0.00,40.00,9,6,20,0.01
2012-1-2,31.0,22.0,11.0,23.0,9.0,3.0,85,59,35,0.00,40.00,12,9,27,0.01
2012-1-3,19.0,11.0,7.0,11.0,4.7,2.0,85,76,62,0.00,40.00,7,6,21,0.01
2012-1-4,42.0,28.8,11.0,16.0,-3.7,-40.0,65,29,4,0.00,40.00,7,4,21,0.01
2012-1-5,50.0,36.0,28.0,26.0,19.6,10.0,87,56,22,0.00,40.00,9,6,19,0.01
2012-1-6,59.0,43.8,34.0,22.0,16.5,4.0,53,35,17,0.00,40.00,7,4,11,0.00
2012-1-7,54.0,46.2,37.0,49.0,42.3,26.0,100,87,64,0.00,40.00,6,4,15,0.06
2012-1-8,50.0,46.1,43.0,48.0,45.7,43.0,100,99,93,0.00,40.00,4,2,7,0.18
2012-1-9,52.0,48.0,46.0,51.0,47.7,46.0,100,99,92,0.00,40.00,5,4,14,0.40
2012-1-10,52.0,47.3,44.0,52.0,47.2,44.0,100,100,97,0.00,40.00,5,3,10,0.26
2012-1-11,48.0,43.8,39.0,48.0,43.7,39.0,100,100,97,0.00,40.00,10,7,26,2.77
2012-1-12,46.0,35.9,16.0,41.0,34.2,10.0,100,94,73,0.00,40.00,9,5,25,0.07
2012-1-13,24.0,16.4,12.0,16.0,11.7,7.0,90,82,68,0.00,40.00,8,6,20,0.05
2012-1-14,36.0,24.1,14.0,19.0,13.2,6.0,89,64,44,0.00,40.00,8,6,17,0.01
2012-1-15,41.0,30.4,20.0,22.0,16.1,8.0,91,59,28,0.00,40.00,9,5,20,0.00
2012-1-16,38.0,34.1,31.0,27.0,17.8,10.0,69,51,38,0.00,40.00,9,6,13,0.00
2012-1-17,48.0,43.3,36.0,48.0,40.8,27.0,100,92,63,0.00,40.00,12,7,31,1.23
2012-1-18,44.0,31.5,25.0,44.0,27.6,9.0,100,87,45,0.00,40.00,8,4,14,1.21
2012-1-19,44.0,31.5,23.0,21.0,16.3,2.0,83,55,32,0.00,40.00,6,3,14,0.00
2012-1-20,51.0,42.2,34.0,48.0,39.1,21.0,100,90,52,0.00,40.00,8,4,14,0.18
2012-1-21,52.0,47.1,42.0,50.0,46.7,42.0,100,98,88,0.00,40.00,9,5,19,0.95
2012-1-22,45.0,42.8,41.0,45.0,42.8,41.0,100,100,100,0.00,40.00,8,6,15,0.05
2012-1-23,47.0,42.3,38.0,47.0,42.0,38.0,100,99,89,0.00,40.00,10,7,20,0.71
2012-1-24,55.0,43.8,35.0,43.0,28.6,13.0,100,62,24,0.00,40.00,5,4,15,0.02
2012-1-25,59.0,50.5,42.0,44.0,28.0,5.0,86,45,17,0.00,40.00,6,5,13,0.00
2012-1-26,52.0,49.4,46.0,52.0,48.5,37.0,100,97,69,0.00,40.00,10,7,19,0.89
2012-1-27,51.0,41.3,31.0,51.0,37.5,25.0,100,87,58,0.00,40.00,9,6,23,1.19
2012-1-28,49.0,37.2,26.0,35.0,22.8,-4.0,79,58,13,0.00,40.00,7,5,15,0.01
2012-1-29,41.0,29.8,20.0,16.0,7.2,-1.0,71,42,19,0.00,40.00,7,5,16,0.00
2012-1-30,52.0,37.1,26.0,16.0,13.4,9.0,54,39,21,0.00,40.00,5,4,11,0.00
2012-1-31,60.0,45.1,36.0,26.0,17.3,11.0,42,33,22,0.00,40.00,7,4,12,0.00
2012-2-1,53.0,46.1,41.0,48.0,41.0,25.0,100,83,52,0.00,40.00,6,3,12,0.63
2012-2-2,56.0,46.3,40.0,48.0,38.9,24.0,100,79,41,0.00,40.00,8,5,15,0.20
2012-2-3,52.0,43.3,38.0,26.0,21.2,14.0,55,42,24,0.00,40.00,7,4,14,0.01
2012-2-4,50.0,44.3,38.0,50.0,41.4,26.0,100,91,55,0.00,40.00,8,5,15,0.44
2012-2-5,56.0,46.8,37.0,49.0,43.5,35.0,100,90,65,0.00,40.00,6,4,14,0.40
2012-2-6,49.0,39.0,31.0,42.0,35.4,30.0,100,88,58,0.00,40.00,6,4,11,0.01
2012-2-7,53.0,38.6,29.0,33.0,27.1,16.0,100,69,25,0.00,40.00,6,3,10,0.00
2012-2-8,45.0,35.7,27.0,31.0,26.4,23.0,89,70,52,0.00,40.00,8,4,16,0.00
2012-2-9,43.0,31.7,23.0,27.0,24.7,22.0,96,77,50,0.00,40.00,8,4,17,0.00
2012-2-10,45.0,36.3,30.0,28.0,22.6,13.0,73,59,30,0.00,40.00,9,4,15,0.00
2012-2-11,34.0,20.4,7.0,26.0,13.9,-2.0,96,76,56,0.00,40.00,11,8,26,0.00
2012-2-12,34.0,16.1,4.0,8.0,3.0,-2.0,78,58,30,0.00,40.00,10,7,27,0.00
2012-2-13,46.0,30.1,15.0,13.0,8.7,3.0,70,43,23,0.00,40.00,6,4,11,0.00
2012-2-14,38.0,32.0,27.0,38.0,29.9,11.0,100,93,39,0.00,40.00,7,4,15,0.13
2012-2-15,62.0,44.9,31.0,33.0,27.3,16.0,100,58,22,0.00,40.00,8,5,16,0.04
2012-2-16,50.0,43.9,38.0,50.0,41.8,32.0,100,93,68,0.00,40.00,7,5,16,0.16
2012-2-17,57.0,44.3,34.0,43.0,33.5,19.0,100,73,22,0.00,40.00,6,4,13,0.02
2012-2-18,55.0,44.7,38.0,44.0,38.6,34.0,100,81,45,0.00,40.00,5,4,9,0.03
2012-2-19,41.0,37.2,27.0,40.0,36.6,27.0,100,98,91,0.00,40.00,13,7,29,0.66
2012-2-20,52.0,34.1,25.0,35.0,26.2,17.0,99,76,39,0.00,40.00,9,5,17,0.10
2012-2-21,47.0,35.9,28.0,37.0,28.9,17.0,90,76,59,0.00,40.00,10,6,20,0.00
2012-2-22,54.0,46.0,39.0,45.0,34.8,23.0,97,66,50,0.00,40.00,10,6,21,0.09
2012-2-23,65.0,53.9,46.0,52.0,46.7,43.0,97,78,51,0.00,40.00,9,6,19,0.25
2012-2-24,61.0,48.1,27.0,53.0,39.6,15.0,91,73,39,0.00,40.00,10,8,23,0.03
2012-2-25,40.0,29.4,22.0,19.0,12.4,6.0,74,51,29,0.00,40.00,10,7,25,0.00
2012-2-26,48.0,34.3,24.0,20.0,12.0,4.0,56,40,25,0.00,40.00,7,4,12,0.00
2012-2-27,58.0,44.4,34.0,47.0,36.4,20.0,100,75,56,0.00,40.00,7,4,11,0.00
2012-2-28,62.0,49.2,42.0,43.0,34.9,28.0,94,59,38,0.00,40.00,7,4,15,0.00
2012-2-29,61.0,52.4,45.0,57.0,51.3,43.0,100,96,80,0.00,40.00,9,7,26,0.16
2012-3-1,67.0,54.4,46.0,51.0,36.8,10.0,99,61,12,0.00,40.00,7,4,22,0.32
2012-3-2,56.0,53.8,49.0,56.0,50.6,32.0,100,91,44,0.00,40.00,10,5,19,0.88
2012-3-3,53.0,42.7,35.0,53.0,35.0,16.0,100,77,38,0.00,40.00,8,5,20,1.00
2012-3-4,35.0,30.3,26.0,20.0,15.7,10.0,75,55,40,0.00,40.00,8,6,20,0.06
2012-3-5,39.0,33.1,26.0,23.0,15.1,9.0,60,48,34,0.00,40.00,12,8,25,0.00
2012-3-6,57.0,39.3,26.0,18.0,10.1,-9.0,54,33,10,0.00,40.00,9,5,17,0.00
2012-3-7,48.0,41.9,35.0,44.0,35.6,17.0,100,80,48,0.00,40.00,9,6,17,0.00
2012-3-8,58.0,49.6,45.0,51.0,47.1,44.0,100,92,72,0.00,40.00,7,5,14,0.32
2012-3-9,51.0,44.7,32.0,51.0,36.5,19.0,100,77,34,0.00,40.00,8,5,15,0.78
2012-3-10,59.0,43.7,30.0,23.0,16.5,5.0,68,36,23,0.00,40.00,7,4,14,0.01
2012-3-11,58.0,44.3,32.0,37.0,23.9,-99.9,74,49,24,0.00,40.00,8,5,16,0.00
2012-3-12,49.0,46.2,43.0,49.0,45.6,37.0,100,98,72,0.00,40.00,8,5,16,0.13
2012-3-13,68.0,56.3,49.0,56.0,48.5,38.0,100,79,42,0.00,40.00,5,3,11,0.30
2012-3-14,72.0,59.3,51.0,49.0,43.4,33.0,86,60,25,0.00,40.00,5,3,10,0.03
2012-3-15,71.0,60.5,52.0,52.0,44.6,39.0,73,57,38,0.00,40.00,6,3,11,0.00
2012-3-16,70.0,57.5,49.0,52.0,46.0,39.0,100,67,47,0.00,40.00,10,4,21,0.37
2012-3-17,67.0,58.6,52.0,52.0,46.9,43.0,87,66,48,0.00,40.00,5,3,12,0.02
2012-3-18,70.0,58.7,52.0,57.0,52.5,47.0,100,81,60,0.00,40.00,7,4,10,0.11
2012-3-19,76.0,61.6,54.0,54.0,50.8,46.0,93,71,39,0.00,40.00,6,4,10,0.01
2012-3-20,74.0,62.4,55.0,55.0,47.2,-99.9,83,62,40,0.00,40.00,6,4,14,0.00
2012-3-21,68.0,59.4,53.0,55.0,50.1,47.0,94,73,49,0.00,40.00,8,5,16,0.00
2012-3-22,66.0,57.6,53.0,60.0,51.9,-99.9,100,85,70,0.00,40.00,6,-9,15,0.05
2012-3-23,59.0,56.1,54.0,58.0,55.6,54.0,100,98,91,0.00,40.00,7,4,12,2.18
2012-3-24,63.0,52.0,41.0,55.0,46.3,36.0,100,84,42,0.00,40.00,7,4,15,0.23
2012-3-25,54.0,45.3,40.0,44.0,41.9,39.0,100,89,59,0.00,40.00,8,6,19,0.03
2012-3-26,71.0,55.7,45.0,44.0,40.1,33.0,92,61,28,0.00,40.00,9,5,18,0.00
2012-3-27,67.0,54.4,44.0,41.0,37.6,34.0,87,56,33,0.00,40.00,6,4,10,0.00
2012-3-28,68.0,57.4,47.0,51.0,45.0,35.0,97,65,48,0.00,40.00,7,4,16,0.00
2012-3-29,71.0,60.5,53.0,52.0,45.9,41.0,82,60,39,0.00,40.00,8,5,21,0.00
2012-3-30,66.0,56.9,52.0,55.0,49.4,42.0,100,78,47,0.00,40.00,6,3,10,0.24
2012-3-31,70.0,56.7,51.0,56.0,50.1,41.0,100,82,44,0.00,40.00,6,4,14,0.66
2012-4-1,71.0,58.4,48.0,51.0,46.8,39.0,100,70,36,0.00,40.00,5,4,13,0.07
2012-4-2,78.0,64.6,54.0,57.0,52.2,47.0,94,67,39,0.00,40.00,8,5,15,0.00
2012-4-3,74.0,61.0,52.0,61.0,54.1,50.0,99,79,56,0.00,40.00,6,4,10,0.37
2012-4-4,70.0,60.3,51.0,56.0,51.6,46.0,98,74,51,0.00,40.00,5,4,11,0.28
2012-4-5,68.0,58.5,49.0,56.0,51.1,46.0,99,77,46,0.00,40.00,6,4,15,0.16
2012-4-6,60.0,47.8,44.0,52.0,43.8,24.0,100,89,37,0.00,40.00,7,3,14,0.68
2012-4-7,67.0,49.7,40.0,39.0,33.3,25.0,81,56,23,0.00,40.00,6,3,12,0.06
2012-4-8,69.0,53.7,42.0,40.0,35.5,29.0,71,52,32,0.00,40.00,6,5,14,0.00
2012-4-9,67.0,52.0,39.0,37.0,23.9,12.0,65,38,13,0.00,40.00,8,5,21,0.00
2012-4-10,62.0,51.1,43.0,35.0,29.0,23.0,52,43,34,0.00,40.00,8,6,25,0.00
2012-4-11,52.0,40.5,31.0,24.0,17.0,14.0,54,40,24,0.00,40.00,10,7,19,0.00
2012-4-12,60.0,40.8,26.0,25.0,19.3,11.0,65,45,15,0.00,40.00,7,4,17,0.00
2012-4-13,64.0,49.1,35.0,29.0,26.4,23.0,66,43,26,0.00,40.00,5,4,11,0.00
2012-4-14,67.0,52.9,42.0,42.0,33.3,-99.9,63,50,39,0.00,40.00,6,5,12,0.00
2012-4-15,69.0,57.2,48.0,55.0,46.0,34.0,90,67,50,0.00,40.00,7,4,15,0.00
2012-4-16,70.0,60.4,54.0,55.0,53.3,50.0,98,79,57,0.00,40.00,6,4,15,0.00
2012-4-17,74.0,59.7,51.0,57.0,52.2,48.0,100,79,48,0.00,40.00,7,4,14,1.06
2012-4-18,55.0,51.6,49.0,55.0,51.3,49.0,100,99,93,0.00,40.00,14,4,21,2.55
2012-4-19,64.0,53.1,47.0,56.0,50.3,47.0,100,91,63,0.00,40.00,5,3,10,0.01
2012-4-20,61.0,52.4,47.0,53.0,49.5,46.0,100,91,69,0.00,40.00,5,3,9,0.00
2012-4-21,65.0,54.3,50.0,56.0,50.6,-99.9,100,93,66,0.00,40.00,5,3,9,0.15
2012-4-22,58.0,45.7,31.0,51.0,41.3,25.0,100,86,61,0.00,40.00,10,5,22,0.15
2012-4-23,45.0,35.4,28.0,30.0,22.6,15.0,84,62,38,0.00,40.00,10,7,25,0.00
2012-4-24,49.0,39.8,32.0,38.0,27.3,18.0,98,63,40,0.00,40.00,8,6,22,0.03
2012-4-25,69.0,52.9,39.0,54.0,45.9,39.0,99,80,51,0.00,40.00,5,4,12,0.07
2012-4-26,64.0,56.5,50.0,60.0,53.3,49.0,100,89,76,0.00,40.00,7,4,24,0.89
2012-4-27,70.0,60.4,55.0,63.0,56.3,53.0,100,88,59,0.00,40.00,4,3,9,0.66
2012-4-28,72.0,61.4,55.0,60.0,54.8,-99.9,99,83,57,0.00,40.00,5,4,12,0.03
2012-4-29,76.0,63.8,54.0,62.0,56.9,50.0,100,81,43,0.00,40.00,5,4,10,0.01
2012-4-30,80.0,66.3,56.0,62.0,56.6,53.0,97,73,46,0.00,40.00,5,4,12,0.01
2012-5-1,78.0,66.5,57.0,63.0,58.0,54.0,99,76,53,0.00,40.00,5,3,12,0.00
2012-5-2,82.0,67.6,57.0,61.0,57.8,54.0,96,74,44,0.00,40.00,4,3,9,0.00
2012-5-3,81.0,66.4,56.0,58.0,55.9,51.0,92,72,35,0.00,40.00,4,3,9,0.00
2012-5-4,74.0,63.3,56.0,62.0,57.8,55.0,98,84,61,0.00,40.00,4,2,11,0.27
2012-5-5,78.0,64.0,56.0,62.0,54.1,-99.9,100,76,45,0.00,40.00,7,3,19,0.01
2012-5-6,74.0,62.0,55.0,65.0,56.1,51.0,96,83,51,0.00,40.00,5,3,16,0.33
2012-5-7,72.0,60.9,56.0,64.0,57.8,56.0,100,90,63,0.00,40.00,5,4,13,0.22
2012-5-8,74.0,61.1,56.0,66.0,58.3,54.0,100,92,67,0.00,40.00,5,3,10,1.37
2012-5-9,59.0,53.9,44.0,57.0,52.5,42.0,99,96,86,0.00,40.00,6,3,15,0.11
2012-5-10,63.0,51.5,41.0,46.0,41.2,36.0,99,71,43,0.00,40.00,4,4,14,0.01
2012-5-11,68.0,54.5,44.0,47.0,40.7,33.0,78,61,46,0.00,40.00,6,3,11,0.00
2012-5-12,57.0,52.7,50.0,56.0,47.1,-99.9,97,86,71,0.00,40.00,6,4,18,0.02
2012-5-13,53.0,52.1,50.0,53.0,51.5,49.0,100,98,91,0.00,40.00,6,4,17,0.85
2012-5-14,66.0,58.0,54.0,61.0,56.5,54.0,100,95,78,0.00,40.00,5,2,14,0.61
2012-5-15,72.0,59.0,53.0,62.0,56.3,53.0,100,91,69,0.00,40.00,5,2,10,1.18
2012-5-16,73.0,60.9,52.0,60.0,53.1,47.0,100,79,41,0.00,40.00,5,2,10,0.01
2012-5-17,73.0,59.3,53.0,62.0,52.6,46.0,97,79,61,0.00,40.00,5,3,9,0.24
2012-5-18,72.0,59.3,53.0,61.0,54.1,48.0,100,85,56,0.00,40.00,5,3,13,0.64
2012-5-19,72.0,59.6,52.0,61.0,54.9,-99.9,100,89,57,0.00,40.00,7,2,24,0.61
2012-5-20,73.0,61.4,53.0,58.0,49.7,39.0,96,67,45,0.00,40.00,8,4,14,0.01
2012-5-21,75.0,62.0,55.0,56.0,50.7,43.0,98,68,45,0.00,40.00,4,2,10,0.00
2012-5-22,67.0,57.3,53.0,59.0,54.2,50.0,100,90,64,0.00,40.00,4,2,14,0.06
2012-5-23,70.0,58.5,52.0,62.0,56.2,52.0,100,93,74,0.00,40.00,5,2,15,0.11
2012-5-24,75.0,62.4,54.0,61.0,55.9,54.0,100,81,57,0.00,40.00,4,2,11,0.10
2012-5-25,81.0,68.1,58.0,65.0,58.2,55.0,95,72,44,0.00,40.00,6,3,11,0.01
2012-5-26,80.0,69.3,60.0,68.0,58.7,-99.9,93,75,43,0.00,40.00,7,3,15,0.00
2012-5-27,77.0,68.2,62.0,62.0,59.0,56.0,93,74,50,0.00,40.00,10,6,17,0.00
2012-5-28,78.0,67.1,60.0,61.0,59.3,57.0,96,78,53,0.00,40.00,11,6,18,0.03
2012-5-29,75.0,64.3,60.0,65.0,61.1,57.0,100,90,71,0.00,40.00,5,3,12,0.23
2012-5-30,79.0,66.4,58.0,63.0,51.5,39.0,100,66,28,0.00,40.00,8,4,19,0.04
2012-5-31,73.0,66.3,59.0,59.0,50.7,37.0,77,58,40,0.00,40.00,4,2,10,0.00
2012-6-1,62.0,57.3,49.0,60.0,55.9,48.0,100,95,75,0.00,40.00,6,3,18,1.09
2012-6-2,65.0,51.5,43.0,50.0,42.4,-99.9,99,77,40,0.00,40.00,5,3,11,0.06
2012-6-3,72.0,58.7,46.0,54.0,48.2,40.0,91,70,50,0.00,40.00,4,3,12,0.00
2012-6-4,70.0,60.7,56.0,61.0,57.3,53.0,100,89,67,0.00,40.00,5,3,13,0.24
2012-6-5,70.0,59.0,53.0,60.0,55.9,53.0,100,90,65,0.00,40.00,7,2,15,0.50
2012-6-6,70.0,57.9,49.0,61.0,52.8,47.0,100,85,50,0.00,40.00,5,3,10,0.05
2012-6-7,73.0,58.7,51.0,58.0,53.2,48.0,100,85,46,0.00,40.00,4,3,12,0.07
2012-6-8,74.0,62.4,55.0,61.0,54.9,50.0,93,78,48,0.00,40.00,5,3,12,0.07
2012-6-9,72.0,62.7,55.0,62.0,54.6,-99.9,95,80,66,0.00,40.00,3,3,9,0.00
2012-6-10,62.0,58.6,54.0,61.0,56.7,51.0,100,93,77,0.00,40.00,8,4,15,0.23
2012-6-11,66.0,62.1,59.0,65.0,61.8,59.0,100,99,95,0.00,40.00,6,2,16,0.33
2012-6-12,80.0,67.6,61.0,68.0,63.3,61.0,100,88,66,0.00,40.00,4,2,11,0.09
2012-6-13,79.0,65.1,57.0,66.0,59.8,54.0,100,84,61,0.00,40.00,9,3,27,1.18
2012-6-14,77.0,64.2,58.0,66.0,60.3,57.0,99,88,64,0.00,40.00,11,5,16,0.75
2012-6-15,72.0,61.4,56.0,63.0,58.8,55.0,100,91,74,0.00,40.00,7,4,13,0.75
2012-6-16,69.0,59.1,54.0,63.0,52.8,-99.9,95,84,75,0.00,40.00,7,4,13,0.00
2012-6-17,74.0,62.5,55.0,65.0,56.7,49.0,96,82,66,0.00,40.00,4,2,9,0.00
2012-6-18,74.0,64.1,56.0,61.0,57.4,55.0,97,80,62,0.00,40.00,3,2,7,0.00
2012-6-19,78.0,67.3,57.0,62.0,57.4,52.0,91,72,55,0.00,40.00,4,2,9,0.00
2012-6-20,77.0,69.6,60.0,65.0,61.6,59.0,95,77,60,0.00,40.00,5,2,10,0.00
2012-6-21,81.0,69.0,61.0,66.0,62.6,59.0,97,81,60,0.00,40.00,4,2,8,0.00
2012-6-22,82.0,67.4,60.0,71.0,61.2,53.0,99,81,64,0.00,40.00,8,2,26,0.09
2012-6-23,81.0,70.3,61.0,68.0,61.7,57.0,93,75,53,0.00,40.00,3,2,7,0.06
2012-6-24,82.0,71.6,64.0,68.0,63.6,59.0,95,77,48,0.00,40.00,6,2,10,0.00
2012-6-25,81.0,70.7,62.0,68.0,61.6,54.0,99,75,49,0.00,40.00,8,3,14,0.00
2012-6-26,79.0,67.4,59.0,61.0,55.0,39.0,90,66,37,0.00,40.00,6,4,15,0.00
2012-6-27,79.0,65.9,53.0,56.0,48.8,37.0,74,55,44,0.00,40.00,6,3,12,0.00
2012-6-28,86.0,70.3,60.0,58.0,51.2,41.0,67,52,33,0.00,40.00,5,3,10,0.00
2012-6-29,92.0,78.5,67.0,66.0,56.3,47.0,62,47,34,0.00,40.00,5,3,12,0.00
2012-6-30,93.0,82.3,71.0,68.0,61.2,53.0,64,50,34,0.00,40.00,4,2,7,0.00
2012-7-1,92.0,80.0,61.0,66.0,60.1,53.0,84,53,32,0.00,40.00,5,2,14,0.56
2012-7-2,80.0,68.3,60.0,68.0,63.2,57.0,99,85,64,0.00,40.00,7,3,14,1.28
2012-7-3,83.0,71.8,63.0,68.0,60.6,55.0,93,70,49,0.00,40.00,6,2,10,0.01
2012-7-4,85.0,71.0,62.0,65.0,60.3,55.0,89,70,48,0.00,40.00,8,3,22,0.24
2012-7-5,87.0,71.7,61.0,72.0,63.6,54.0,96,77,60,0.00,40.00,14,4,28,1.58
2012-7-6,81.0,71.8,66.0,68.0,58.6,50.0,93,64,50,0.00,40.00,7,4,22,2.07
2012-7-7,83.0,73.2,66.0,72.0,65.6,60.0,90,78,64,0.00,40.00,5,2,8,0.10
2012-7-8,87.0,71.6,64.0,72.0,66.4,59.0,99,85,53,0.00,40.00,7,3,17,0.11
2012-7-9,82.0,71.9,63.0,72.0,65.6,62.0,99,82,60,0.00,40.00,4,2,10,0.07
2012-7-10,80.0,68.6,62.0,70.0,63.4,61.0,98,84,60,0.00,40.00,4,2,13,0.08
2012-7-11,75.0,64.4,62.0,69.0,63.1,56.0,99,95,82,0.00,40.00,6,2,11,0.36
2012-7-12,66.0,62.2,60.0,64.0,61.4,57.0,99,97,87,0.00,40.00,9,5,15,0.24
2012-7-13,75.0,65.4,62.0,69.0,63.9,62.0,100,95,72,0.00,40.00,6,3,13,0.68
2012-7-14,74.0,67.2,64.0,71.0,65.5,64.0,100,94,78,0.00,40.00,6,3,11,2.14
2012-7-15,79.0,68.6,63.0,74.0,65.7,62.0,100,91,73,0.00,40.00,4,2,10,0.05
2012-7-16,82.0,70.3,62.0,69.0,63.8,59.0,99,81,55,0.00,40.00,4,2,9,0.01
2012-7-17,78.0,69.6,62.0,73.0,64.1,60.0,98,84,67,0.00,40.00,4,2,9,0.00
2012-7-18,83.0,69.8,63.0,68.0,64.7,54.0,99,85,53,0.00,40.00,9,2,13,0.03
2012-7-19,84.0,70.3,63.0,69.0,65.2,62.0,97,85,60,0.00,40.00,4,2,9,0.01
2012-7-20,80.0,69.3,62.0,68.0,64.3,61.0,99,85,65,0.00,40.00,3,2,9,0.18
2012-7-21,78.0,69.0,62.0,67.0,64.5,62.0,99,86,69,0.00,40.00,4,2,11,0.18
2012-7-22,81.0,71.1,63.0,67.0,63.8,60.0,98,80,52,0.00,40.00,3,2,9,0.01
2012-7-23,82.0,72.1,63.0,70.0,65.3,61.0,95,80,62,0.00,40.00,4,2,7,0.00
2012-7-24,82.0,72.4,65.0,70.0,66.5,64.0,98,83,62,0.00,40.00,4,2,13,0.01
2012-7-25,83.0,72.0,65.0,70.0,67.1,64.0,98,86,60,0.00,40.00,3,2,7,0.01
2012-7-26,84.0,73.4,65.0,70.0,66.2,62.0,99,80,55,0.00,40.00,4,2,11,0.01
2012-7-27,83.0,72.0,65.0,72.0,66.1,59.0,97,83,59,0.00,40.00,7,2,19,0.46
2012-7-28,83.0,70.6,62.0,68.0,62.5,57.0,99,78,48,0.00,40.00,4,2,18,0.10
2012-7-29,81.0,69.0,60.0,64.0,58.5,50.0,98,73,35,0.00,40.00,8,2,13,0.29
2012-7-30,82.0,70.0,63.0,67.0,60.7,56.0,96,73,60,0.00,40.00,8,4,12,0.48
2012-7-31,71.0,65.7,63.0,68.0,64.0,61.0,99,94,80,0.00,40.00,4,2,8,0.58
2012-8-1,82.0,67.6,57.0,65.0,61.4,57.0,99,83,51,0.00,40.00,3,2,9,0.10
2012-8-2,83.0,74.3,62.0,69.0,62.9,53.0,84,68,56,0.00,40.00,4,2,8,0.01
2012-8-3,80.0,69.3,64.0,69.0,65.2,62.0,97,87,67,0.00,40.00,7,2,12,0.03
2012-8-4,76.0,66.5,61.0,67.0,63.6,60.0,99,91,72,0.00,40.00,3,2,11,0.03
2012-8-5,81.0,70.5,64.0,68.0,65.4,63.0,99,85,65,0.00,40.00,4,2,12,0.01
2012-8-6,76.0,68.2,63.0,69.0,64.7,62.0,99,89,70,0.00,40.00,3,1,9,0.95
2012-8-7,73.0,66.7,62.0,70.0,65.7,62.0,100,96,84,0.00,40.00,3,1,5,1.09
2012-8-8,82.0,68.7,63.0,71.0,65.1,61.0,100,89,67,0.00,40.00,3,2,14,0.03
2012-8-9,78.0,65.7,60.0,70.0,63.1,59.0,98,92,71,0.00,40.00,9,2,14,0.29
2012-8-10,78.0,65.6,60.0,68.0,62.5,60.0,99,90,72,0.00,40.00,3,2,8,0.06
2012-8-11,77.0,64.6,56.0,65.0,58.3,-99.9,98,84,61,0.00,40.00,4,2,9,0.01
2012-8-12,78.0,64.7,55.0,63.0,57.0,50.0,98,79,39,0.00,40.00,3,2,8,0.01
2012-8-13,77.0,64.3,55.0,58.0,54.8,47.0,95,73,48,0.00,40.00,4,2,9,0.04
2012-8-14,78.0,66.8,59.0,66.0,59.0,50.0,93,77,59,0.00,40.00,4,2,10,0.05
2012-8-15,75.0,63.7,58.0,63.0,59.2,55.0,99,87,55,0.00,40.00,4,2,11,0.01
2012-8-16,78.0,65.7,55.0,61.0,55.9,51.0,96,74,42,0.00,40.00,3,2,9,0.00
2012-8-17,73.0,65.9,60.0,64.0,59.9,56.0,97,81,65,0.00,40.00,3,1,7,0.00
2012-8-18,75.0,64.3,58.0,67.0,60.6,57.0,99,89,66,0.00,40.00,4,2,9,0.00
2012-8-19,70.0,62.3,58.0,62.0,59.1,57.0,99,89,73,0.00,40.00,4,1,8,0.29
2012-8-20,73.0,62.1,53.0,59.0,55.4,50.0,99,81,49,0.00,40.00,3,2,7,0.02
2012-8-21,71.0,62.6,57.0,59.0,53.0,47.0,84,71,58,0.00,40.00,7,3,11,0.00
2012-8-22,72.0,63.2,55.0,59.0,53.7,48.0,91,72,52,0.00,40.00,4,2,8,0.00
2012-8-23,74.0,63.7,58.0,66.0,59.0,52.0,95,85,68,0.00,40.00,6,2,11,0.16
2012-8-24,72.0,63.8,57.0,63.0,58.6,54.0,98,83,70,0.00,40.00,7,2,12,0.16
2012-8-25,75.0,63.6,57.0,67.0,56.4,-99.9,95,83,63,0.00,40.00,7,2,15,0.02
2012-8-26,79.0,65.4,58.0,66.0,60.4,57.0,99,85,61,0.00,40.00,5,2,9,0.02
2012-8-27,79.0,67.0,59.0,70.0,60.7,56.0,95,82,63,0.00,40.00,9,4,14,0.01
2012-8-28,72.0,65.2,62.0,68.0,62.1,56.0,98,90,72,0.00,40.00,7,3,12,0.64
2012-8-29,78.0,66.7,62.0,69.0,64.4,61.0,99,93,71,0.00,40.00,5,1,9,0.13
2012-8-30,71.0,66.7,63.0,69.0,65.6,63.0,99,96,88,0.00,40.00,2,1,6,0.50
2012-8-31,81.0,68.8,61.0,69.0,64.8,61.0,99,88,66,0.00,40.00,3,1,9,0.04
2012-9-1,79.0,68.6,61.0,68.0,64.0,59.0,98,86,59,0.00,40.00,3,2,8,0.08
2012-9-2,77.0,69.2,63.0,70.0,65.7,62.0,99,89,74,0.00,40.00,3,2,8,0.48
2012-9-3,72.0,66.0,63.0,70.0,65.1,63.0,100,97,82,0.00,40.00,4,2,10,1.37
2012-9-4,68.0,64.9,63.0,67.0,64.5,63.0,100,99,96,0.00,40.00,4,2,11,1.07
2012-9-5,76.0,67.0,63.0,72.0,65.6,63.0,100,95,85,0.00,40.00,3,1,6,0.03
2012-9-6,78.0,68.3,62.0,68.0,63.5,60.0,99,86,60,0.00,40.00,4,2,8,0.01
2012-9-7,80.0,69.1,61.0,68.0,62.4,58.0,97,80,58,0.00,40.00,4,2,8,0.00
2012-9-8,75.0,65.1,56.0,68.0,62.2,56.0,99,91,73,0.00,40.00,4,2,10,0.14
2012-9-9,69.0,56.7,46.0,55.0,50.1,43.0,99,81,55,0.00,40.00,5,3,12,0.06
2012-9-10,71.0,60.6,51.0,52.0,48.9,45.0,86,67,44,0.00,40.00,4,2,9,0.00
2012-9-11,68.0,59.1,53.0,57.0,53.0,48.0,93,81,67,0.00,40.00,2,1,7,0.00
2012-9-12,72.0,60.5,55.0,60.0,54.8,53.0,97,83,55,0.00,40.00,5,3,14,0.00
2012-9-13,68.0,58.2,52.0,54.0,51.0,48.0,95,78,56,0.00,40.00,7,4,12,0.00
2012-9-14,72.0,60.7,52.0,58.0,53.4,49.0,90,77,58,0.00,40.00,7,2,11,0.00
2012-9-15,74.0,62.1,54.0,59.0,55.2,52.0,95,79,57,0.00,40.00,5,2,7,0.00
2012-9-16,70.0,61.1,57.0,63.0,57.8,54.0,98,89,73,0.00,40.00,3,1,6,0.11
2012-9-17,64.0,60.6,58.0,62.0,59.7,56.0,99,97,93,0.00,40.00,7,3,16,0.92
2012-9-18,62.0,59.6,55.0,62.0,59.5,55.0,100,99,98,0.00,40.00,8,4,18,4.19
2012-9-19,69.0,56.2,45.0,61.0,52.7,45.0,99,89,65,0.00,40.00,5,2,12,0.02
2012-9-20,71.0,57.9,51.0,60.0,54.6,51.0,99,89,68,0.00,40.00,3,2,10,0.00
2012-9-21,71.0,60.3,51.0,59.0,55.1,50.0,99,85,57,0.00,40.00,3,2,7,0.00
2012-9-22,71.0,60.9,52.0,59.0,53.3,-99.9,96,80,58,0.00,40.00,5,3,15,0.00
2012-9-23,64.0,53.2,43.0,47.0,37.5,25.0,91,59,23,0.00,40.00,6,3,12,0.00
2012-9-24,67.0,51.5,39.0,47.0,38.0,30.0,82,62,38,0.00,40.00,4,3,8,0.00
2012-9-25,73.0,56.9,45.0,55.0,48.3,38.0,93,75,46,0.00,40.00,4,3,9,0.00
2012-9-26,76.0,61.2,53.0,61.0,53.8,49.0,94,78,52,0.00,40.00,4,3,7,0.00
2012-9-27,73.0,61.5,52.0,57.0,53.6,49.0,91,77,53,0.00,40.00,4,2,9,0.00
2012-9-28,72.0,62.5,56.0,60.0,56.5,53.0,94,81,65,0.00,40.00,4,2,8,0.00
2012-9-29,65.0,59.2,54.0,62.0,56.9,53.0,98,93,74,0.00,40.00,4,2,9,0.22
2012-9-30,67.0,56.8,51.0,58.0,54.1,51.0,99,92,65,0.00,40.00,4,2,8,0.14
2012-10-1,61.0,56.8,54.0,61.0,56.3,53.0,99,98,97,0.00,40.00,9,7,24,2.81
2012-10-2,65.0,59.8,56.0,63.0,58.6,55.0,100,96,79,0.00,40.00,7,4,22,4.05
2012-10-3,70.0,58.0,53.0,56.0,51.3,44.0,98,81,47,0.00,40.00,3,2,8,0.01
2012-10-4,70.0,57.6,51.0,56.0,50.2,45.0,98,80,47,0.00,40.00,4,2,9,0.00
2012-10-5,72.0,59.6,51.0,55.0,49.8,41.0,90,71,52,0.00,40.00,3,1,9,0.00
2012-10-6,70.0,58.7,52.0,59.0,53.5,49.0,98,83,67,0.00,40.00,3,2,10,0.00
2012-10-7,61.0,51.7,45.0,57.0,48.9,43.0,98,91,77,0.00,40.00,5,2,11,0.28
2012-10-8,48.0,45.2,43.0,47.0,44.2,42.0,98,98,97,0.00,40.00,4,2,15,0.04
2012-10-9,59.0,46.4,41.0,50.0,43.1,40.0,98,90,62,0.00,40.00,3,1,7,0.01
2012-10-10,55.0,47.2,41.0,49.0,43.7,40.0,96,88,77,0.00,40.00,6,4,17,0.01
2012-10-11,66.0,51.9,38.0,45.0,36.5,3.0,98,62,16,0.00,40.00,4,2,10,0.01
2012-10-12,63.0,54.4,48.0,54.0,48.2,38.0,96,80,59,0.00,40.00,5,3,13,0.00
2012-10-13,63.0,52.9,47.0,51.0,45.1,40.0,96,76,55,0.00,40.00,9,4,15,0.00
2012-10-14,58.0,52.3,47.0,57.0,50.7,44.0,98,95,87,0.00,40.00,5,4,10,0.00
2012-10-15,60.0,54.1,42.0,56.0,49.2,38.0,99,85,56,0.00,40.00,5,4,17,1.08
2012-10-16,63.0,48.4,38.0,40.0,36.9,28.0,95,68,31,0.00,40.00,7,3,18,0.13
2012-10-17,65.0,52.3,44.0,43.0,38.0,30.0,80,60,42,0.00,40.00,6,3,14,0.00
2012-10-18,56.0,50.7,46.0,55.0,48.7,40.0,98,94,78,0.00,40.00,6,4,14,0.06
2012-10-19,60.0,49.5,41.0,49.0,28.6,23.0,93,47,28,0.00,40.00,8,4,15,0.02
2012-10-20,60.0,47.0,38.0,40.0,35.6,28.0,87,66,45,0.00,40.00,5,4,13,0.00
2012-10-21,65.0,49.5,38.0,43.0,38.1,35.0,96,69,39,0.00,40.00,5,3,10,0.00
2012-10-22,72.0,59.1,50.0,47.0,41.8,36.0,74,54,35,0.00,40.00,4,2,8,0.00
2012-10-23,72.0,58.8,51.0,50.0,45.1,36.0,80,64,28,0.00,40.00,4,2,10,0.00
2012-10-24,75.0,59.5,51.0,47.0,44.1,40.0,82,59,36,0.00,40.00,6,3,9,0.00
2012-10-25,69.0,57.9,52.0,52.0,47.6,42.0,86,69,50,0.00,40.00,6,4,14,0.00
2012-10-26,68.0,58.8,54.0,55.0,52.7,49.0,97,81,56,0.00,40.00,6,3,14,0.00
2012-10-27,65.0,55.0,45.0,53.0,48.8,44.0,97,80,63,0.00,40.00,11,4,17,0.00
2012-10-28,48.0,41.1,32.0,47.0,40.0,31.0,98,97,89,0.00,40.00,9,4,22,0.21
2012-10-29,35.0,30.8,28.0,31.0,29.2,27.0,97,94,81,0.00,40.00,10,8,26,0.03
2012-10-30,30.0,27.9,26.0,28.0,25.9,23.0,96,92,87,0.00,40.00,11,8,24,0.00
2012-10-31,47.0,34.1,28.0,32.0,23.2,15.0,95,68,33,0.00,40.00,10,7,22,0.04
2012-11-1,47.0,35.4,26.0,25.0,16.4,8.0,83,49,22,0.00,40.00,10,7,18,0.02
2012-11-2,60.0,44.4,34.0,38.0,27.9,14.0,68,53,38,0.00,40.00,8,5,17,0.00
2012-11-3,66.0,52.2,39.0,46.0,27.5,1.0,68,42,11,0.00,40.00,7,5,15,0.00
2012-11-4,57.0,50.5,37.0,50.0,43.3,36.0,95,77,61,0.00,40.00,6,4,14,0.00
2012-11-5,54.0,40.4,31.0,36.0,29.2,19.0,96,69,28,0.00,40.00,5,4,12,0.00
2012-11-6,39.0,34.9,32.0,33.0,31.5,30.0,95,88,70,0.00,40.00,7,4,14,0.06
2012-11-7,39.0,34.3,32.0,38.0,33.2,31.0,97,96,92,0.00,40.00,6,3,12,0.29
2012-11-8,52.0,37.5,30.0,38.0,28.9,23.0,97,75,38,0.00,40.00,6,3,11,0.01
2012-11-9,61.0,46.7,35.0,30.0,20.4,15.0,67,37,17,0.00,40.00,5,2,9,0.00
2012-11-10,68.0,53.7,46.0,29.0,23.6,16.0,52,33,14,0.00,40.00,6,3,10,0.00
2012-11-11,55.0,48.9,43.0,47.0,37.8,28.0,89,66,49,0.00,40.00,10,6,24,0.00
2012-11-12,53.0,50.1,40.0,53.0,49.6,39.0,99,98,89,0.00,40.00,9,7,20,0.61
2012-11-13,50.0,39.0,31.0,41.0,32.3,21.0,98,80,43,0.00,40.00,10,4,15,0.48
2012-11-14,49.0,38.6,31.0,36.0,24.2,-99.9,83,59,39,0.00,40.00,10,3,15,0.01
2012-11-15,54.0,42.2,36.0,40.0,35.4,30.0,96,78,56,0.00,40.00,7,3,11,0.00
2012-11-16,56.0,42.3,34.0,36.0,32.8,25.0,97,72,41,0.00,40.00,5,3,9,0.00
2012-11-17,56.0,42.2,35.0,30.0,16.4,4.0,70,38,13,0.00,40.00,12,6,19,0.00
2012-11-18,54.0,43.5,35.0,43.0,29.2,8.0,85,59,29,0.00,40.00,10,6,17,0.00
2012-11-19,57.0,45.8,40.0,48.0,40.2,33.0,98,81,69,0.00,40.00,7,2,11,0.00
2012-11-20,56.0,45.9,40.0,43.0,36.4,30.0,98,73,42,0.00,40.00,5,2,10,0.00
2012-11-21,60.0,47.6,41.0,39.0,34.5,31.0,76,61,46,0.00,40.00,8,4,13,0.00
2012-11-22,61.0,47.3,40.0,37.0,33.3,24.0,76,60,24,0.00,40.00,4,2,10,0.00
2012-11-23,59.0,44.5,33.0,43.0,34.9,28.0,93,70,48,0.00,40.00,9,6,20,0.00
2012-11-24,41.0,29.1,21.0,28.0,18.2,10.0,92,67,32,0.00,40.00,8,5,17,0.00
2012-11-25,51.0,38.9,22.0,13.0,0.6,-21.0,67,21,9,0.00,40.00,6,3,10,0.00
2012-11-26,44.0,37.1,35.0,11.0,8.5,4.0,33,30,19,0.00,40.00,6,5,9,0.00
2012-11-27,49.0,42.7,37.0,47.0,40.9,32.0,98,94,67,0.00,40.00,4,2,8,0.14
2012-11-28,49.0,37.5,32.0,37.0,30.3,16.0,98,80,37,0.00,40.00,4,3,8,0.03
2012-11-29,54.0,40.2,32.0,33.0,29.8,27.0,95,69,38,0.00,40.00,5,3,10,0.00
2012-11-30,53.0,43.6,36.0,36.0,29.0,12.0,81,58,31,0.00,40.00,4,2,8,0.00
2012-12-1,57.0,46.2,41.0,43.0,39.4,36.0,89,78,57,0.00,40.00,4,3,8,0.00
2012-12-2,61.0,49.2,45.0,45.0,43.2,39.0,98,82,50,0.00,40.00,6,4,14,0.00
2012-12-3,66.0,52.1,46.0,47.0,43.1,41.0,88,72,47,0.00,40.00,5,3,9,0.00
2012-12-4,61.0,52.7,48.0,47.0,44.1,42.0,85,73,57,0.00,40.00,6,4,11,0.00
2012-12-5,53.0,50.7,46.0,52.0,47.8,40.0,97,90,76,0.00,40.00,11,3,16,0.03
2012-12-6,49.0,42.8,38.0,44.0,34.5,-99.9,94,77,63,0.00,40.00,6,4,15,0.06
2012-12-7,53.0,47.1,42.0,49.0,45.5,40.0,98,95,82,0.00,40.00,6,4,11,0.03
2012-12-8,53.0,48.5,47.0,49.0,47.1,46.0,97,94,86,0.00,40.00,5,3,9,0.01
2012-12-9,55.0,51.6,49.0,51.0,49.5,48.0,99,93,83,0.00,40.00,5,3,10,0.03
2012-12-10,51.0,50.0,49.0,50.0,48.7,47.0,97,95,91,0.00,40.00,7,6,17,0.78
2012-12-11,49.0,35.5,31.0,47.0,34.3,30.0,97,96,92,0.00,40.00,6,3,16,0.03
2012-12-12,41.0,35.8,33.0,36.0,32.4,30.0,96,88,71,0.00,40.00,6,3,15,0.00
2012-12-13,50.0,38.3,31.0,37.0,32.0,24.0,97,80,57,0.00,40.00,8,3,15,0.00
2012-12-14,59.0,40.9,32.0,33.0,24.5,-6.0,85,57,11,0.00,40.00,8,3,12,0.00
2012-12-15,56.0,47.7,43.0,40.0,25.7,-15.0,84,47,7,0.00,40.00,6,4,11,0.00
2012-12-16,50.0,46.1,43.0,49.0,44.9,38.0,98,97,84,0.00,40.00,7,3,14,0.97
2012-12-17,47.0,45.5,44.0,46.0,43.9,41.0,98,95,89,0.00,40.00,8,4,14,0.77
2012-12-18,45.0,38.8,33.0,43.0,28.6,11.0,97,70,33,0.00,40.00,8,5,21,0.01
2012-12-19,57.0,44.1,34.0,39.0,30.1,11.0,75,58,33,0.00,40.00,7,4,13,0.00
2012-12-20,45.0,40.2,26.0,42.0,35.7,22.0,98,85,66,0.00,40.00,13,9,22,1.16
2012-12-21,26.0,22.7,19.0,22.0,17.2,11.0,90,79,69,0.00,40.00,10,6,25,0.01
2012-12-22,44.0,27.1,16.0,12.0,5.3,-8.0,73,45,18,0.00,40.00,7,5,19,0.00
2012-12-23,47.0,37.1,30.0,35.0,16.7,-2.0,83,46,24,0.00,40.00,6,4,10,0.00
2012-12-24,45.0,41.5,36.0,44.0,38.4,20.0,98,91,43,0.00,40.00,8,3,15,0.74
2012-12-25,44.0,40.2,37.0,42.0,38.5,36.0,98,95,85,0.00,40.00,10,5,22,0.20
2012-12-26,44.0,35.5,22.0,43.0,34.3,20.0,98,96,92,0.00,40.00,13,6,30,2.35
2012-12-27,36.0,28.1,22.0,34.0,24.9,20.0,94,88,64,0.00,40.00,5,2,7,0.01
2012-12-28,49.0,37.2,30.0,29.0,17.8,-9.0,89,50,13,0.00,40.00,6,4,12,0.08
2012-12-29,32.0,24.2,19.0,31.0,15.2,-99.9,97,85,81,0.00,40.00,7,3,15,0.37
2012-12-30,42.0,26.0,16.0,23.0,15.8,7.0,91,68,33,0.00,40.00,5,1,7,0.09
2012-12-31,48.0,39.3,33.0,15.0,2.9,-11.0,34,22,14,0.00,40.00,7,4,10,0.00
2013-1-1,44.0,41.4,38.0,43.0,35.2,8.0,98,83,26,0.00,40.00,5,3,12,0.68